createdAt,value
2022-12-25T00:00:40.889Z,56.53
2022-12-25T00:01:43.254Z,56.90
2022-12-25T00:02:46.656Z,57.78
2022-12-25T00:03:49.362Z,55.98
2022-12-25T00:04:52.848Z,56.68
2022-12-25T00:05:58.133Z,55.35
2022-12-25T00:07:01.627Z,55.09
2022-12-25T00:08:04.127Z,55.77
2022-12-25T00:09:07.507Z,54.79
2022-12-25T00:10:10.638Z,55.26
2022-12-25T00:11:17.106Z,55.20
2022-12-25T00:12:22.481Z,55.84
2022-12-25T00:13:25.874Z,54.79
2022-12-25T00:14:28.211Z,55.56
2022-12-25T00:15:31.786Z,55.11
2022-12-25T00:16:34.201Z,54.69
2022-12-25T00:17:37.826Z,54.90
2022-12-25T00:18:40.271Z,55.49
2022-12-25T00:19:44.040Z,55.60
2022-12-25T00:20:46.527Z,54.30
2022-12-25T00:21:50.033Z,54.79
2022-12-25T00:22:52.409Z,55.60
2022-12-25T00:23:56.663Z,55.21
2022-12-25T00:24:59.024Z,55.07
2022-12-25T00:26:06.025Z,55.58
2022-12-25T00:27:08.518Z,55.88
2022-12-25T00:28:13.974Z,55.42
2022-12-25T00:29:16.458Z,56.93
2022-12-25T00:30:19.984Z,56.12
2022-12-25T00:31:22.878Z,56.55
2022-12-25T00:32:26.649Z,55.85
2022-12-25T00:33:29.067Z,55.78
2022-12-25T00:34:32.855Z,56.57
2022-12-25T00:35:35.329Z,55.59
2022-12-25T00:36:41.927Z,55.24
2022-12-25T00:37:44.826Z,55.89
2022-12-25T00:38:48.803Z,55.52
2022-12-25T00:39:51.691Z,55.73
2022-12-25T00:40:55.469Z,55.86
2022-12-25T00:42:16.295Z,55.46
2022-12-25T00:43:21.367Z,56.16
2022-12-25T00:44:23.784Z,56.64
2022-12-25T00:45:27.315Z,56.33
2022-12-25T00:46:29.762Z,56.18
2022-12-25T00:47:33.317Z,56.35
2022-12-25T00:48:36.102Z,56.76
2022-12-25T00:49:39.629Z,56.24
2022-12-25T00:50:43.291Z,56.07
2022-12-25T00:51:46.781Z,56.91
2022-12-25T00:52:49.133Z,56.54
2022-12-25T00:53:52.565Z,56.30
2022-12-25T00:54:54.979Z,55.86
2022-12-25T00:56:00.133Z,55.72
2022-12-25T00:57:02.768Z,56.61
2022-12-25T00:58:06.088Z,56.58
2022-12-25T00:59:10.151Z,57.02
2022-12-25T01:00:15.028Z,57.65
2022-12-25T01:01:17.663Z,58.02
2022-12-25T01:02:27.258Z,59.29
2022-12-25T01:03:29.743Z,59.28
2022-12-25T01:04:33.141Z,59.64
2022-12-25T01:05:35.481Z,59.10
2022-12-25T01:06:39.025Z,59.20
2022-12-25T01:07:41.318Z,59.27
2022-12-25T01:09:05.895Z,58.63
2022-12-25T01:10:31.640Z,58.59
2022-12-25T01:11:33.998Z,58.31
2022-12-25T01:12:39.281Z,57.91
2022-12-25T01:13:42.867Z,57.35
2022-12-25T01:14:47.029Z,57.68
2022-12-25T01:15:52.303Z,57.62
2022-12-25T01:16:55.012Z,57.40
2022-12-25T01:17:59.802Z,57.55
2022-12-25T01:19:04.050Z,56.81
2022-12-25T01:20:08.469Z,56.62
2022-12-25T01:21:12.413Z,56.82
2022-12-25T01:22:16.465Z,56.50
2022-12-25T01:23:18.924Z,56.89
2022-12-25T01:24:22.357Z,58.06
2022-12-25T01:25:24.746Z,57.43
2022-12-25T01:26:28.772Z,56.93
2022-12-25T01:27:32.526Z,56.86
2022-12-25T01:28:36.125Z,57.12
2022-12-25T01:29:38.948Z,57.41
2022-12-25T01:30:49.413Z,57.80
2022-12-25T01:31:51.903Z,57.86
2022-12-25T01:32:55.581Z,58.05
2022-12-25T01:33:58.072Z,57.83
2022-12-25T01:35:01.447Z,58.20
2022-12-25T01:36:04.769Z,57.81
2022-12-25T01:37:08.341Z,57.98
2022-12-25T01:38:11.102Z,58.16
2022-12-25T01:39:15.449Z,57.07
2022-12-25T01:40:17.971Z,56.59
2022-12-25T01:41:26.625Z,56.71
2022-12-25T01:42:29.087Z,57.06
2022-12-25T01:43:34.821Z,57.71
2022-12-25T01:45:16.684Z,58.31
2022-12-25T01:46:21.714Z,58.40
2022-12-25T01:47:24.035Z,58.07
2022-12-25T01:48:32.153Z,58.19
2022-12-25T01:49:38.993Z,57.43
2022-12-25T01:50:45.827Z,57.20
2022-12-25T01:51:52.707Z,57.12
2022-12-25T01:52:57.851Z,57.54
2022-12-25T01:54:05.845Z,57.21
2022-12-25T01:55:11.930Z,57.24
2022-12-25T01:56:15.426Z,58.57
2022-12-25T01:57:21.604Z,58.55
2022-12-25T01:58:25.978Z,59.31
2022-12-25T01:59:29.681Z,59.14
2022-12-25T02:00:33.037Z,58.50
2022-12-25T02:01:37.085Z,58.79
2022-12-25T02:02:42.830Z,59.70
2022-12-25T02:03:45.535Z,60.48
2022-12-25T02:04:53.623Z,60.51
2022-12-25T02:05:56.603Z,61.30
2022-12-25T02:07:00.115Z,61.23
2022-12-25T02:08:08.253Z,61.54
2022-12-25T02:09:12.019Z,60.41
2022-12-25T02:10:14.429Z,60.66
2022-12-25T02:11:31.597Z,59.60
2022-12-25T02:12:36.774Z,60.42
2022-12-25T02:13:39.290Z,61.21
2022-12-25T02:14:42.825Z,61.57
2022-12-25T02:15:53.868Z,61.20
2022-12-25T02:17:06.393Z,61.89
2022-12-25T02:18:17.374Z,62.11
2022-12-25T02:19:36.975Z,61.64
2022-12-25T02:21:24.792Z,61.02
2022-12-25T02:22:39.772Z,61.60
2022-12-25T02:24:27.915Z,63.37
2022-12-25T02:25:43.567Z,61.32
2022-12-25T02:27:08.574Z,62.60
2022-12-25T02:28:20.558Z,63.17
2022-12-25T02:29:30.613Z,63.60
2022-12-25T02:30:38.700Z,64.04
2022-12-25T02:31:51.392Z,64.26
2022-12-25T02:33:18.797Z,65.30
2022-12-25T02:34:27.765Z,65.41
2022-12-25T02:35:31.871Z,65.84
2022-12-25T02:36:41.967Z,65.75
2022-12-25T02:37:51.002Z,65.81
2022-12-25T02:39:17.904Z,65.61
2022-12-25T02:40:24.239Z,65.52
2022-12-25T02:41:30.108Z,65.11
2022-12-25T02:43:00.399Z,65.12
2022-12-25T02:44:28.838Z,65.23
2022-12-25T02:45:53.065Z,63.02
2022-12-25T02:47:14.278Z,63.35
2022-12-25T02:48:37.339Z,63.50
2022-12-25T02:49:59.720Z,62.90
2022-12-25T02:51:23.732Z,62.85
2022-12-25T02:52:48.628Z,61.57
2022-12-25T02:54:13.262Z,61.36
2022-12-25T02:55:38.092Z,61.52
2022-12-25T02:57:02.025Z,60.81
2022-12-25T02:58:32.199Z,60.63
2022-12-25T02:59:57.128Z,61.07
2022-12-25T03:01:21.893Z,60.81
2022-12-25T03:02:45.204Z,60.08
2022-12-25T03:04:10.877Z,60.14
2022-12-25T03:05:38.532Z,59.75
2022-12-25T03:06:47.086Z,60.43
2022-12-25T03:07:50.313Z,60.18
2022-12-25T03:09:16.721Z,59.71
2022-12-25T03:10:39.523Z,60.92
2022-12-25T03:11:42.609Z,59.02
2022-12-25T03:12:49.894Z,58.77
2022-12-25T03:14:17.194Z,60.05
2022-12-25T03:15:40.335Z,58.46
2022-12-25T03:16:53.925Z,59.03
2022-12-25T03:17:59.373Z,59.53
2022-12-25T03:19:23.311Z,58.71
2022-12-25T03:20:44.614Z,58.90
2022-12-25T03:22:05.723Z,58.33
2022-12-25T03:23:27.183Z,58.02
2022-12-25T03:24:48.082Z,58.90
2022-12-25T03:26:08.933Z,58.49
2022-12-25T03:27:13.139Z,58.60
2022-12-25T03:28:15.587Z,58.51
2022-12-25T03:29:32.663Z,59.08
2022-12-25T03:31:00.954Z,58.64
2022-12-25T03:32:14.488Z,59.31
2022-12-25T03:33:44.687Z,59.92
2022-12-25T03:35:13.518Z,59.92
2022-12-25T03:36:25.940Z,60.00
2022-12-25T03:38:12.732Z,60.12
2022-12-25T03:39:42.138Z,60.11
2022-12-25T03:41:15.366Z,59.20
2022-12-25T03:42:42.266Z,59.79
2022-12-25T03:44:22.511Z,59.86
2022-12-25T03:45:50.839Z,58.75
2022-12-25T03:47:19.933Z,58.54
2022-12-25T03:48:41.807Z,58.36
2022-12-25T03:50:08.713Z,58.39
2022-12-25T03:51:32.792Z,58.41
2022-12-25T03:52:55.385Z,58.88
2022-12-25T03:54:21.902Z,59.41
2022-12-25T03:55:44.095Z,58.41
2022-12-25T03:57:05.859Z,57.96
2022-12-25T03:58:36.421Z,57.33
2022-12-25T03:59:53.696Z,57.94
2022-12-25T04:01:14.568Z,57.03
2022-12-25T04:02:36.875Z,57.52
2022-12-25T04:03:58.309Z,58.59
2022-12-25T04:05:19.015Z,58.57
2022-12-25T04:06:39.860Z,60.08
2022-12-25T04:08:00.829Z,60.97
2022-12-25T04:09:21.715Z,61.62
2022-12-25T04:10:42.921Z,63.70
2022-12-25T04:12:03.859Z,64.24
2022-12-25T04:13:24.767Z,64.72
2022-12-25T04:14:45.698Z,65.32
2022-12-25T04:16:06.603Z,65.74
2022-12-25T04:17:27.480Z,67.22
2022-12-25T04:18:49.504Z,67.42
2022-12-25T04:20:10.467Z,68.49
2022-12-25T04:21:31.407Z,68.16
2022-12-25T04:22:52.595Z,67.90
2022-12-25T04:24:13.915Z,68.85
2022-12-25T04:25:34.820Z,69.05
2022-12-25T04:26:55.761Z,68.45
2022-12-25T04:28:20.204Z,70.24
2022-12-25T04:29:40.798Z,69.99
2022-12-25T04:31:01.771Z,69.81
2022-12-25T04:32:22.748Z,68.95
2022-12-25T04:33:43.568Z,68.55
2022-12-25T04:35:06.140Z,66.99
2022-12-25T04:36:13.110Z,66.69
2022-12-25T04:37:15.464Z,64.44
2022-12-25T04:38:21.173Z,64.32
2022-12-25T04:39:23.716Z,64.06
2022-12-25T04:40:26.293Z,62.98
2022-12-25T04:41:30.155Z,62.11
2022-12-25T04:42:32.583Z,61.91
2022-12-25T04:43:36.393Z,62.47
2022-12-25T04:44:39.399Z,60.44
2022-12-25T04:45:42.891Z,60.44
2022-12-25T04:46:45.340Z,60.29
2022-12-25T04:47:48.763Z,59.41
2022-12-25T04:48:51.209Z,59.67
2022-12-25T04:49:56.150Z,59.96
2022-12-25T04:51:10.031Z,59.37
2022-12-25T04:52:13.366Z,59.22
2022-12-25T04:53:16.142Z,59.05
2022-12-25T04:54:19.741Z,59.28
2022-12-25T04:55:22.180Z,58.51
2022-12-25T04:56:25.653Z,59.32
2022-12-25T04:57:28.169Z,58.22
2022-12-25T04:58:33.158Z,58.14
2022-12-25T04:59:35.842Z,57.62
2022-12-25T05:00:39.579Z,57.79
2022-12-25T05:01:41.999Z,58.41
2022-12-25T05:02:45.668Z,57.57
2022-12-25T05:03:48.281Z,57.96
2022-12-25T05:04:52.099Z,58.69
2022-12-25T05:05:56.284Z,59.23
2022-12-25T05:07:00.134Z,59.99
2022-12-25T05:08:02.542Z,61.50
2022-12-25T05:09:06.534Z,61.79
2022-12-25T05:10:10.124Z,62.63
2022-12-25T05:11:16.064Z,64.13
2022-12-25T05:12:18.854Z,64.83
2022-12-25T05:13:22.387Z,65.04
2022-12-25T05:14:25.181Z,65.29
2022-12-25T05:15:28.804Z,65.79
2022-12-25T05:16:31.338Z,66.24
2022-12-25T05:17:35.117Z,66.44
2022-12-25T05:18:37.549Z,67.07
2022-12-25T05:19:41.123Z,67.26
2022-12-25T05:20:44.094Z,66.61
2022-12-25T05:21:49.346Z,66.30
2022-12-25T05:22:51.852Z,66.44
2022-12-25T05:23:55.885Z,65.81
2022-12-25T05:24:58.488Z,64.96
2022-12-25T05:26:05.697Z,64.80
2022-12-25T05:27:08.333Z,64.71
2022-12-25T05:28:12.272Z,64.71
2022-12-25T05:29:15.197Z,64.07
2022-12-25T05:30:18.993Z,63.90
2022-12-25T05:31:21.908Z,63.25
2022-12-25T05:32:25.341Z,63.16
2022-12-25T05:33:27.962Z,62.61
2022-12-25T05:34:31.604Z,63.09
2022-12-25T05:35:33.927Z,62.75
2022-12-25T05:36:37.535Z,62.85
2022-12-25T05:37:41.371Z,62.26
2022-12-25T05:38:45.670Z,62.09
2022-12-25T05:39:48.134Z,60.42
2022-12-25T05:40:53.349Z,59.98
2022-12-25T05:41:55.881Z,59.71
2022-12-25T05:42:59.360Z,60.76
2022-12-25T05:44:01.790Z,61.05
2022-12-25T05:45:05.732Z,60.38
2022-12-25T05:46:09.851Z,59.91
2022-12-25T05:47:13.462Z,59.89
2022-12-25T05:48:15.963Z,59.94
2022-12-25T05:49:19.735Z,60.04
2022-12-25T05:50:22.153Z,60.10
2022-12-25T05:51:26.305Z,59.89
2022-12-25T05:52:31.896Z,59.92
2022-12-25T05:53:37.397Z,60.13
2022-12-25T05:54:39.744Z,60.98
2022-12-25T05:55:45.025Z,60.72
2022-12-25T05:56:47.513Z,60.02
2022-12-25T05:57:50.871Z,60.19
2022-12-25T05:58:53.343Z,60.52
2022-12-25T05:59:57.017Z,60.15
2022-12-25T06:00:59.547Z,60.23
2022-12-25T06:02:03.829Z,60.74
2022-12-25T06:03:06.435Z,60.95
2022-12-25T06:04:12.734Z,60.92
2022-12-25T06:05:15.684Z,59.18
2022-12-25T06:06:19.485Z,59.63
2022-12-25T06:07:22.134Z,60.86
2022-12-25T06:08:25.650Z,60.06
2022-12-25T06:09:29.403Z,59.01
2022-12-25T06:10:32.974Z,58.90
2022-12-25T06:11:35.453Z,59.54
2022-12-25T06:12:39.233Z,59.29
2022-12-25T06:13:42.022Z,58.13
2022-12-25T06:14:45.550Z,58.51
2022-12-25T06:15:47.927Z,58.94
2022-12-25T06:16:53.311Z,59.20
2022-12-25T06:17:56.022Z,60.18
2022-12-25T06:18:59.509Z,61.50
2022-12-25T06:20:01.896Z,62.61
2022-12-25T06:21:09.188Z,62.72
2022-12-25T06:22:11.508Z,63.27
2022-12-25T06:23:15.279Z,66.18
2022-12-25T06:24:21.214Z,66.48
2022-12-25T06:25:26.635Z,65.75
2022-12-25T06:26:29.200Z,65.75
2022-12-25T06:27:32.712Z,65.68
2022-12-25T06:28:35.311Z,66.00
2022-12-25T06:29:39.200Z,65.56
2022-12-25T06:30:41.570Z,65.77
2022-12-25T06:31:45.145Z,66.42
2022-12-25T06:32:47.685Z,65.78
2022-12-25T06:33:51.576Z,65.40
2022-12-25T06:34:53.885Z,65.08
2022-12-25T06:35:57.238Z,64.29
2022-12-25T06:36:59.649Z,64.34
2022-12-25T06:38:03.178Z,64.41
2022-12-25T06:39:06.618Z,64.05
2022-12-25T06:40:09.792Z,64.17
2022-12-25T06:41:16.211Z,63.75
2022-12-25T06:42:21.499Z,62.96
2022-12-25T06:43:25.115Z,61.18
2022-12-25T06:44:27.943Z,61.07
2022-12-25T06:45:31.360Z,62.31
2022-12-25T06:46:33.741Z,60.71
2022-12-25T06:47:37.946Z,60.18
2022-12-25T06:48:41.745Z,60.12
2022-12-25T06:49:45.075Z,59.03
2022-12-25T06:50:47.502Z,59.76
2022-12-25T06:51:51.241Z,58.81
2022-12-25T06:52:53.836Z,58.54
2022-12-25T06:53:58.778Z,59.00
2022-12-25T06:55:01.147Z,59.93
2022-12-25T06:56:05.198Z,60.00
2022-12-25T06:57:10.127Z,59.54
2022-12-25T06:58:12.820Z,59.47
2022-12-25T06:59:16.522Z,59.61
2022-12-25T07:00:19.399Z,59.78
2022-12-25T07:01:25.362Z,61.36
2022-12-25T07:02:28.348Z,61.37
2022-12-25T07:03:32.178Z,61.88
2022-12-25T07:04:39.173Z,62.47
2022-12-25T07:05:42.691Z,64.59
2022-12-25T07:06:45.169Z,64.50
2022-12-25T07:07:48.587Z,64.92
2022-12-25T07:08:51.012Z,64.84
2022-12-25T07:09:54.542Z,64.97
2022-12-25T07:10:57.018Z,64.90
2022-12-25T07:12:05.605Z,65.06
2022-12-25T07:13:09.718Z,64.75
2022-12-25T07:14:23.377Z,64.27
2022-12-25T07:15:26.707Z,63.86
2022-12-25T07:16:30.288Z,63.68
2022-12-25T07:17:35.186Z,63.29
2022-12-25T07:18:38.972Z,62.96
2022-12-25T07:19:45.173Z,61.92
2022-12-25T07:20:49.068Z,61.94
2022-12-25T07:21:52.599Z,61.81
2022-12-25T07:22:55.007Z,61.20
2022-12-25T07:23:58.462Z,60.92
2022-12-25T07:25:00.989Z,60.60
2022-12-25T07:26:05.095Z,60.02
2022-12-25T07:27:08.572Z,59.25
2022-12-25T07:28:13.385Z,59.08
2022-12-25T07:29:15.862Z,58.38
2022-12-25T07:30:19.660Z,58.26
2022-12-25T07:31:22.062Z,57.38
2022-12-25T07:32:25.498Z,57.17
2022-12-25T07:33:28.014Z,57.09
2022-12-25T07:34:31.537Z,57.15
2022-12-25T07:35:33.938Z,57.37
2022-12-25T07:36:37.383Z,57.24
2022-12-25T07:37:39.740Z,58.17
2022-12-25T07:38:43.576Z,58.32
2022-12-25T07:39:45.933Z,58.41
2022-12-25T07:40:49.355Z,58.77
2022-12-25T07:41:52.854Z,58.38
2022-12-25T07:42:55.578Z,58.58
2022-12-25T07:44:00.672Z,59.26
2022-12-25T07:45:03.228Z,58.84
2022-12-25T07:46:07.561Z,58.95
2022-12-25T07:47:10.132Z,59.15
2022-12-25T07:48:16.804Z,59.10
2022-12-25T07:49:19.394Z,59.47
2022-12-25T07:50:22.770Z,59.47
2022-12-25T07:51:25.424Z,59.92
2022-12-25T07:52:29.071Z,60.46
2022-12-25T07:53:32.481Z,61.75
2022-12-25T07:54:36.254Z,61.67
2022-12-25T07:55:38.616Z,61.97
2022-12-25T07:56:42.005Z,62.88
2022-12-25T07:57:44.288Z,63.24
2022-12-25T07:58:48.457Z,63.80
2022-12-25T07:59:52.194Z,64.02
2022-12-25T08:00:56.092Z,64.29
2022-12-25T08:01:59.658Z,64.58
2022-12-25T08:03:02.358Z,64.73
2022-12-25T08:04:06.035Z,65.07
2022-12-25T08:05:08.983Z,64.92
2022-12-25T08:06:12.965Z,65.58
2022-12-25T08:07:15.243Z,66.05
2022-12-25T08:08:18.638Z,66.69
2022-12-25T08:09:21.147Z,66.50
2022-12-25T08:10:24.499Z,66.87
2022-12-25T08:11:27.012Z,67.51
2022-12-25T08:12:30.850Z,66.90
2022-12-25T08:13:34.467Z,66.09
2022-12-25T08:14:37.982Z,65.85
2022-12-25T08:15:42.550Z,65.20
2022-12-25T08:16:47.160Z,64.99
2022-12-25T08:17:49.632Z,64.45
2022-12-25T08:18:53.076Z,63.78
2022-12-25T08:19:55.492Z,63.19
2022-12-25T08:21:03.969Z,62.02
2022-12-25T08:22:06.791Z,61.14
2022-12-25T08:23:10.625Z,60.36
2022-12-25T08:24:14.131Z,60.09
2022-12-25T08:25:16.809Z,60.20
2022-12-25T08:26:23.213Z,59.95
2022-12-25T08:27:25.684Z,59.95
2022-12-25T08:28:30.817Z,59.65
2022-12-25T08:29:34.141Z,59.72
2022-12-25T08:30:38.765Z,59.77
2022-12-25T08:31:46.643Z,59.27
2022-12-25T08:32:49.714Z,58.47
2022-12-25T08:33:54.968Z,57.95
2022-12-25T08:34:57.434Z,57.05
2022-12-25T08:36:03.828Z,56.26
2022-12-25T08:37:07.274Z,56.55
2022-12-25T08:38:09.825Z,56.24
2022-12-25T08:39:13.494Z,56.93
2022-12-25T08:40:16.146Z,57.01
2022-12-25T08:41:19.989Z,56.58
2022-12-25T08:42:22.586Z,55.91
2022-12-25T08:43:26.236Z,55.69
2022-12-25T08:44:30.001Z,55.43
2022-12-25T08:45:35.390Z,55.05
2022-12-25T08:46:39.954Z,54.40
2022-12-25T08:47:43.898Z,54.42
2022-12-25T08:48:48.364Z,54.41
2022-12-25T08:49:51.729Z,54.17
2022-12-25T08:50:54.478Z,53.96
2022-12-25T08:51:58.169Z,54.59
2022-12-25T08:53:00.897Z,54.67
2022-12-25T08:54:04.818Z,55.67
2022-12-25T08:55:08.521Z,56.41
2022-12-25T08:56:12.694Z,55.82
2022-12-25T08:57:14.996Z,55.75
2022-12-25T08:58:18.308Z,55.18
2022-12-25T08:59:21.810Z,55.19
2022-12-25T09:00:24.214Z,55.02
2022-12-25T09:01:28.150Z,55.51
2022-12-25T09:02:30.811Z,55.57
2022-12-25T09:03:36.214Z,55.75
2022-12-25T09:04:38.767Z,56.12
2022-12-25T09:05:42.285Z,56.19
2022-12-25T09:06:44.625Z,55.48
2022-12-25T09:07:47.898Z,55.83
2022-12-25T09:08:50.455Z,56.17
2022-12-25T09:09:54.054Z,56.61
2022-12-25T09:10:57.164Z,56.54
2022-12-25T09:12:00.526Z,57.05
2022-12-25T09:13:03.339Z,58.41
2022-12-25T09:14:06.866Z,56.99
2022-12-25T09:15:10.617Z,56.17
2022-12-25T09:16:16.740Z,55.93
2022-12-25T09:17:20.213Z,55.96
2022-12-25T09:18:22.518Z,54.90
2022-12-25T09:19:27.511Z,54.36
2022-12-25T09:20:29.842Z,53.44
2022-12-25T09:21:33.453Z,53.05
2022-12-25T09:22:35.871Z,52.96
2022-12-25T09:23:39.632Z,52.37
2022-12-25T09:24:43.838Z,53.31
2022-12-25T09:25:47.200Z,55.26
2022-12-25T09:26:49.605Z,54.77
2022-12-25T09:27:53.122Z,54.54
2022-12-25T09:28:55.623Z,53.69
2022-12-25T09:29:59.171Z,52.84
2022-12-25T09:31:01.751Z,51.42
2022-12-25T09:32:05.434Z,51.17
2022-12-25T09:33:07.973Z,51.43
2022-12-25T09:34:17.065Z,50.52
2022-12-25T09:35:22.631Z,49.66
2022-12-25T09:36:26.807Z,49.98
2022-12-25T09:37:31.129Z,48.88
2022-12-25T09:38:34.648Z,49.88
2022-12-25T09:39:45.833Z,49.68
2022-12-25T09:40:49.979Z,50.88
2022-12-25T09:41:59.565Z,50.73
2022-12-25T09:43:04.109Z,50.85
2022-12-25T09:44:11.759Z,52.43
2022-12-25T09:45:18.247Z,52.34
2022-12-25T09:46:30.168Z,52.95
2022-12-25T09:47:40.358Z,51.96
2022-12-25T09:48:49.806Z,52.11
2022-12-25T09:49:58.700Z,51.86
2022-12-25T09:51:09.148Z,51.41
2022-12-25T09:52:16.310Z,51.47
2022-12-25T09:53:24.340Z,52.39
2022-12-25T09:54:40.729Z,52.87
2022-12-25T09:55:48.977Z,53.63
2022-12-25T09:56:52.378Z,53.43
2022-12-25T09:57:57.054Z,53.93
2022-12-25T09:59:00.534Z,54.15
2022-12-25T10:00:03.159Z,54.98
2022-12-25T10:01:17.815Z,54.15
2022-12-25T10:02:37.048Z,55.37
2022-12-25T10:03:57.633Z,56.13
2022-12-25T10:05:11.003Z,56.91
2022-12-25T10:06:22.189Z,57.25
2022-12-25T10:07:37.774Z,57.67
2022-12-25T10:08:56.387Z,57.19
2022-12-25T10:10:16.217Z,57.15
2022-12-25T10:11:31.155Z,56.56
2022-12-25T10:12:46.927Z,56.78
2022-12-25T10:14:03.157Z,56.67
2022-12-25T10:15:21.041Z,57.06
2022-12-25T10:16:32.279Z,56.62
2022-12-25T10:17:46.635Z,55.13
2022-12-25T10:19:04.440Z,54.46
2022-12-25T10:20:19.415Z,54.15
2022-12-25T10:21:24.534Z,54.51
2022-12-25T10:22:33.234Z,53.48
2022-12-25T10:23:39.638Z,54.12
2022-12-25T10:24:46.781Z,53.95
2022-12-25T10:25:50.037Z,53.62
2022-12-25T10:26:55.499Z,54.28
2022-12-25T10:28:01.217Z,53.32
2022-12-25T10:29:13.874Z,51.59
2022-12-25T10:30:18.284Z,51.62
2022-12-25T10:31:24.059Z,52.32
2022-12-25T10:32:26.557Z,51.87
2022-12-25T10:33:30.276Z,52.73
2022-12-25T10:34:35.144Z,52.71
2022-12-25T10:35:38.965Z,52.46
2022-12-25T10:36:46.272Z,53.12
2022-12-25T10:37:54.079Z,53.41
2022-12-25T10:38:57.904Z,53.38
2022-12-25T10:40:00.339Z,53.86
2022-12-25T10:41:20.324Z,53.49
2022-12-25T10:42:34.143Z,53.98
2022-12-25T10:43:43.044Z,54.18
2022-12-25T10:44:56.330Z,54.77
2022-12-25T10:46:00.614Z,55.15
2022-12-25T10:47:04.738Z,53.39
2022-12-25T10:48:09.188Z,54.65
2022-12-25T10:49:17.865Z,54.62
2022-12-25T10:50:25.238Z,53.58
2022-12-25T10:51:33.943Z,55.06
2022-12-25T10:52:52.123Z,54.87
2022-12-25T10:53:55.493Z,55.08
2022-12-25T10:54:57.756Z,54.77
2022-12-25T10:56:03.537Z,55.50
2022-12-25T10:57:16.327Z,54.51
2022-12-25T10:58:21.653Z,53.76
2022-12-25T10:59:24.583Z,53.15
2022-12-25T11:00:30.723Z,52.81
2022-12-25T11:01:33.636Z,52.96
2022-12-25T11:02:41.556Z,52.74
2022-12-25T11:03:47.000Z,51.43
2022-12-25T11:04:52.224Z,52.63
2022-12-25T11:05:55.042Z,52.07
2022-12-25T11:07:02.708Z,51.79
2022-12-25T11:08:21.094Z,52.37
2022-12-25T11:09:24.584Z,52.80
2022-12-25T11:10:31.588Z,52.04
2022-12-25T11:11:34.130Z,51.93
2022-12-25T11:12:43.160Z,53.53
2022-12-25T11:13:50.735Z,53.23
2022-12-25T11:14:58.829Z,53.57
2022-12-25T11:16:07.471Z,53.77
2022-12-25T11:17:11.261Z,54.44
2022-12-25T11:18:22.790Z,53.72
2022-12-25T11:19:29.807Z,53.59
2022-12-25T11:20:33.355Z,52.31
2022-12-25T11:21:38.727Z,52.16
2022-12-25T11:22:45.675Z,52.62
2022-12-25T11:23:52.126Z,53.40
2022-12-25T11:24:55.484Z,54.15
2022-12-25T11:26:00.226Z,54.27
2022-12-25T11:27:07.187Z,53.84
2022-12-25T11:28:13.478Z,52.96
2022-12-25T11:29:25.821Z,53.81
2022-12-25T11:30:31.300Z,53.78
2022-12-25T11:31:39.731Z,55.13
2022-12-25T11:32:47.885Z,55.63
2022-12-25T11:33:55.469Z,56.63
2022-12-25T11:34:59.978Z,56.85
2022-12-25T11:36:13.213Z,56.02
2022-12-25T11:37:21.667Z,55.14
2022-12-25T11:38:24.872Z,56.08
2022-12-25T11:39:32.982Z,56.09
2022-12-25T11:40:40.984Z,56.79
2022-12-25T11:41:45.324Z,57.43
2022-12-25T11:42:53.298Z,57.40
2022-12-25T11:44:00.215Z,57.70
2022-12-25T11:45:08.495Z,58.28
2022-12-25T11:46:17.274Z,58.73
2022-12-25T11:47:26.843Z,59.06
2022-12-25T11:48:34.343Z,58.29
2022-12-25T11:49:49.636Z,59.94
2022-12-25T11:50:58.922Z,59.32
2022-12-25T11:52:01.539Z,59.15
2022-12-25T11:53:08.028Z,59.55
2022-12-25T11:54:19.261Z,59.35
2022-12-25T11:55:32.441Z,60.35
2022-12-25T11:56:35.038Z,60.62
2022-12-25T11:57:40.680Z,61.58
2022-12-25T11:58:47.081Z,62.33
2022-12-25T11:59:57.903Z,62.37
2022-12-25T12:01:04.796Z,62.91
2022-12-25T12:02:25.363Z,63.42
2022-12-25T12:03:31.656Z,62.91
2022-12-25T12:04:42.934Z,62.56
2022-12-25T12:05:48.528Z,63.04
2022-12-25T12:06:56.824Z,63.59
2022-12-25T12:08:01.845Z,64.23
2022-12-25T12:09:19.614Z,64.84
2022-12-25T12:10:28.433Z,66.00
2022-12-25T12:11:38.284Z,65.72
2022-12-25T12:12:52.622Z,66.58
2022-12-25T12:14:07.245Z,66.78
2022-12-25T12:15:18.976Z,66.43
2022-12-25T12:16:22.556Z,65.67
2022-12-25T12:17:24.969Z,66.17
2022-12-25T12:18:33.013Z,65.46
2022-12-25T12:19:35.385Z,66.25
2022-12-25T12:20:39.208Z,67.66
2022-12-25T12:21:44.261Z,66.94
2022-12-25T12:22:51.919Z,67.32
2022-12-25T12:24:02.655Z,67.48
2022-12-25T12:25:07.475Z,68.43
2022-12-25T12:26:20.273Z,68.66
2022-12-25T12:27:27.629Z,68.49
2022-12-25T12:28:40.880Z,68.69
2022-12-25T12:29:45.177Z,69.12
2022-12-25T12:30:59.642Z,70.19
2022-12-25T12:32:05.614Z,69.58
2022-12-25T12:33:08.450Z,69.09
2022-12-25T12:34:23.098Z,68.61
2022-12-25T12:35:29.097Z,69.46
2022-12-25T12:36:36.846Z,69.30
2022-12-25T12:37:41.570Z,68.01
2022-12-25T12:38:46.214Z,67.76
2022-12-25T12:39:53.638Z,68.21
2022-12-25T12:41:00.070Z,68.73
2022-12-25T12:42:13.588Z,70.28
2022-12-25T12:43:32.097Z,70.58
2022-12-25T12:44:34.920Z,70.64
2022-12-25T12:45:39.706Z,70.59
2022-12-25T12:46:52.476Z,70.80
2022-12-25T12:47:56.093Z,69.81
2022-12-25T12:49:10.790Z,69.40
2022-12-25T12:50:30.474Z,69.40
2022-12-25T12:51:36.847Z,68.91
2022-12-25T12:52:41.316Z,69.55
2022-12-25T12:53:44.632Z,69.60
2022-12-25T12:55:00.568Z,69.91
2022-12-25T12:56:17.572Z,68.35
2022-12-25T12:57:29.527Z,69.15
2022-12-25T12:58:34.019Z,69.68
2022-12-25T12:59:43.536Z,69.39
2022-12-25T13:00:52.598Z,68.96
2022-12-25T13:02:07.150Z,69.70
2022-12-25T13:03:32.068Z,69.59
2022-12-25T13:05:02.335Z,68.80
2022-12-25T13:06:13.253Z,68.75
2022-12-25T13:07:33.355Z,69.47
2022-12-25T13:08:50.937Z,69.49
2022-12-25T13:10:03.905Z,69.07
2022-12-25T13:11:19.813Z,68.35
2022-12-25T13:12:25.344Z,68.41
2022-12-25T13:13:37.076Z,68.69
2022-12-25T13:14:45.176Z,69.41
2022-12-25T13:15:51.396Z,69.33
2022-12-25T13:16:55.062Z,69.30
2022-12-25T13:18:03.209Z,69.70
2022-12-25T13:19:07.774Z,69.85
2022-12-25T13:20:21.402Z,69.85
2022-12-25T13:21:25.480Z,69.87
2022-12-25T13:22:33.791Z,70.77
2022-12-25T13:23:37.978Z,70.64
2022-12-25T13:24:41.470Z,71.36
2022-12-25T13:25:51.497Z,70.80
2022-12-25T13:26:55.536Z,70.92
2022-12-25T13:27:59.749Z,70.93
2022-12-25T13:29:07.956Z,71.00
2022-12-25T13:30:20.249Z,71.16
2022-12-25T13:31:24.866Z,71.14
2022-12-25T13:32:31.896Z,71.09
2022-12-25T13:33:34.853Z,70.38
2022-12-25T13:34:39.904Z,70.03
2022-12-25T13:35:43.798Z,69.75
2022-12-25T13:36:47.351Z,69.17
2022-12-25T13:37:50.226Z,70.15
2022-12-25T13:38:57.154Z,69.73
2022-12-25T13:40:01.462Z,69.71
2022-12-25T13:41:22.114Z,69.87
2022-12-25T13:42:28.506Z,68.61
2022-12-25T13:43:32.405Z,68.06
2022-12-25T13:44:44.711Z,68.15
2022-12-25T13:45:55.056Z,68.57
2022-12-25T13:47:08.756Z,69.15
2022-12-25T13:48:15.881Z,69.63
2022-12-25T13:49:21.839Z,69.81
2022-12-25T13:50:26.890Z,69.61
2022-12-25T13:51:30.604Z,69.31
2022-12-25T13:52:35.116Z,68.49
2022-12-25T13:53:38.685Z,69.39
2022-12-25T13:54:51.260Z,69.66
2022-12-25T13:55:57.600Z,70.35
2022-12-25T13:56:59.886Z,70.01
2022-12-25T13:58:05.893Z,69.55
2022-12-25T13:59:16.595Z,69.33
2022-12-25T14:00:22.583Z,69.53
2022-12-25T14:01:25.063Z,70.04
2022-12-25T14:02:33.415Z,70.50
2022-12-25T14:03:41.973Z,70.82
2022-12-25T14:04:45.283Z,70.25
2022-12-25T14:05:57.535Z,70.20
2022-12-25T14:07:10.011Z,70.76
2022-12-25T14:08:18.521Z,70.48
2022-12-25T14:09:21.749Z,70.14
2022-12-25T14:10:27.582Z,70.14
2022-12-25T14:11:31.423Z,70.47
2022-12-25T14:12:35.581Z,70.90
2022-12-25T14:13:41.509Z,70.84
2022-12-25T14:14:46.328Z,71.34
2022-12-25T14:15:50.438Z,71.78
2022-12-25T14:16:57.554Z,71.35
2022-12-25T14:18:00.306Z,71.57
2022-12-25T14:19:04.762Z,70.74
2022-12-25T14:20:08.897Z,71.51
2022-12-25T14:21:17.377Z,71.08
2022-12-25T14:22:22.818Z,72.57
2022-12-25T14:23:27.123Z,73.10
2022-12-25T14:24:31.507Z,72.33
2022-12-25T14:25:42.291Z,72.67
2022-12-25T14:26:45.166Z,73.50
2022-12-25T14:27:51.626Z,73.10
2022-12-25T14:29:01.746Z,73.21
2022-12-25T14:30:14.461Z,73.14
2022-12-25T14:31:17.171Z,72.65
2022-12-25T14:32:24.070Z,72.96